sensor_id;sensor_type;location;lat;lon;timestamp;P1;durP1;ratioP1;P2;durP2;ratioP2
68995;SDS011;56056;48.990;12.146;2023-09-08T00:01:39;1999.90;;;999.90;;
68995;SDS011;56056;48.990;12.146;2023-09-08T00:04:06;1999.90;;;999.90;;
68995;SDS011;56056;48.990;12.146;2023-09-08T00:06:32;1999.90;;;999.90;;
68995;SDS011;56056;48.990;12.146;2023-09-08T00:08:58;1999.90;;;999.90;;
68995;SDS011;56056;48.990;12.146;2023-09-08T00:11:24;1999.90;;;999.90;;
68995;SDS011;56056;48.990;12.146;2023-09-08T00:13:50;1999.90;;;999.90;;
68995;SDS011;56056;48.990;12.146;2023-09-08T00:16:16;1999.90;;;999.90;;
68995;SDS011;56056;48.990;12.146;2023-09-08T00:18:42;1693.60;;;691.38;;
68995;SDS011;56056;48.990;12.146;2023-09-08T00:21:09;1999.90;;;999.90;;
68995;SDS011;56056;48.990;12.146;2023-09-08T00:23:35;1999.90;;;999.90;;
68995;SDS011;56056;48.990;12.146;2023-09-08T00:26:01;1999.90;;;999.90;;
68995;SDS011;56056;48.990;12.146;2023-09-08T00:28:27;1999.90;;;999.90;;
68995;SDS011;56056;48.990;12.146;2023-09-08T00:30:52;1999.90;;;999.90;;
68995;SDS011;56056;48.990;12.146;2023-09-08T00:33:18;1999.90;;;999.90;;
68995;SDS011;56056;48.990;12.146;2023-09-08T00:35:44;1999.90;;;999.90;;
68995;SDS011;56056;48.990;12.146;2023-09-08T00:38:14;1999.90;;;999.90;;
68995;SDS011;56056;48.990;12.146;2023-09-08T00:40:40;1999.90;;;999.90;;
68995;SDS011;56056;48.990;12.146;2023-09-08T00:43:06;1999.90;;;999.90;;
68995;SDS011;56056;48.990;12.146;2023-09-08T00:45:38;1999.90;;;999.90;;
68995;SDS011;56056;48.990;12.146;2023-09-08T00:48:06;1999.90;;;999.90;;
68995;SDS011;56056;48.990;12.146;2023-09-08T00:50:33;1999.90;;;999.90;;
68995;SDS011;56056;48.990;12.146;2023-09-08T00:52:59;1999.90;;;999.90;;
68995;SDS011;56056;48.990;12.146;2023-09-08T00:55:26;1854.88;;;757.22;;
68995;SDS011;56056;48.990;12.146;2023-09-08T00:57:52;1999.90;;;999.90;;
68995;SDS011;56056;48.990;12.146;2023-09-08T01:00:18;1999.90;;;999.90;;
68995;SDS011;56056;48.990;12.146;2023-09-08T01:02:44;1999.90;;;999.90;;
68995;SDS011;56056;48.990;12.146;2023-09-08T01:05:10;1829.85;;;749.17;;
68995;SDS011;56056;48.990;12.146;2023-09-08T01:07:39;1999.90;;;999.90;;
68995;SDS011;56056;48.990;12.146;2023-09-08T01:10:05;1730.38;;;629.42;;
68995;SDS011;56056;48.990;12.146;2023-09-08T01:12:34;1999.90;;;999.90;;
68995;SDS011;56056;48.990;12.146;2023-09-08T01:15:00;1999.90;;;999.90;;
68995;SDS011;56056;48.990;12.146;2023-09-08T01:17:25;1999.90;;;999.90;;
68995;SDS011;56056;48.990;12.146;2023-09-08T01:19:51;1992.97;;;721.70;;
68995;SDS011;56056;48.990;12.146;2023-09-08T01:22:22;1999.90;;;999.90;;
68995;SDS011;56056;48.990;12.146;2023-09-08T01:25:19;1999.90;;;999.90;;
68995;SDS011;56056;48.990;12.146;2023-09-08T01:27:48;1999.90;;;871.08;;
68995;SDS011;56056;48.990;12.146;2023-09-08T01:30:17;1999.90;;;849.85;;
68995;SDS011;56056;48.990;12.146;2023-09-08T01:32:44;1999.90;;;999.90;;
68995;SDS011;56056;48.990;12.146;2023-09-08T01:35:11;1999.90;;;999.90;;
68995;SDS011;56056;48.990;12.146;2023-09-08T01:37:39;1999.90;;;999.90;;
68995;SDS011;56056;48.990;12.146;2023-09-08T01:40:07;1999.90;;;999.90;;
68995;SDS011;56056;48.990;12.146;2023-09-08T01:42:36;1999.90;;;833.53;;
68995;SDS011;56056;48.990;12.146;2023-09-08T01:45:03;1999.90;;;999.90;;
68995;SDS011;56056;48.990;12.146;2023-09-08T01:47:30;1999.90;;;999.90;;
68995;SDS011;56056;48.990;12.146;2023-09-08T01:49:56;1999.90;;;999.90;;
68995;SDS011;56056;48.990;12.146;2023-09-08T01:52:22;1999.90;;;999.90;;
68995;SDS011;56056;48.990;12.146;2023-09-08T01:54:48;1999.90;;;999.90;;
68995;SDS011;56056;48.990;12.146;2023-09-08T01:57:14;1999.90;;;841.80;;
68995;SDS011;56056;48.990;12.146;2023-09-08T01:59:41;1999.90;;;999.90;;
68995;SDS011;56056;48.990;12.146;2023-09-08T02:02:08;1999.90;;;999.90;;
68995;SDS011;56056;48.990;12.146;2023-09-08T02:04:34;1999.90;;;999.90;;
68995;SDS011;56056;48.990;12.146;2023-09-08T02:06:59;1999.90;;;999.90;;
68995;SDS011;56056;48.990;12.146;2023-09-08T02:09:30;1999.90;;;999.90;;
68995;SDS011;56056;48.990;12.146;2023-09-08T02:11:56;1999.90;;;999.90;;
68995;SDS011;56056;48.990;12.146;2023-09-08T02:14:22;1999.90;;;999.90;;
68995;SDS011;56056;48.990;12.146;2023-09-08T02:16:49;1999.90;;;999.90;;
68995;SDS011;56056;48.990;12.146;2023-09-08T02:19:15;1999.90;;;869.10;;
68995;SDS011;56056;48.990;12.146;2023-09-08T02:21:41;1999.90;;;845.42;;
68995;SDS011;56056;48.990;12.146;2023-09-08T02:24:07;1999.90;;;874.67;;
68995;SDS011;56056;48.990;12.146;2023-09-08T02:26:33;1999.90;;;861.45;;
68995;SDS011;56056;48.990;12.146;2023-09-08T02:28:59;1999.90;;;849.45;;
68995;SDS011;56056;48.990;12.146;2023-09-08T02:31:25;1999.90;;;913.00;;
68995;SDS011;56056;48.990;12.146;2023-09-08T02:33:53;1999.90;;;999.90;;
68995;SDS011;56056;48.990;12.146;2023-09-08T02:36:18;1999.90;;;865.70;;
68995;SDS011;56056;48.990;12.146;2023-09-08T02:38:50;1999.90;;;875.92;;
68995;SDS011;56056;48.990;12.146;2023-09-08T02:41:16;1999.90;;;999.90;;
68995;SDS011;56056;48.990;12.146;2023-09-08T02:43:41;1999.90;;;999.90;;
68995;SDS011;56056;48.990;12.146;2023-09-08T02:46:07;1999.90;;;896.88;;
68995;SDS011;56056;48.990;12.146;2023-09-08T02:48:34;1999.90;;;999.90;;
68995;SDS011;56056;48.990;12.146;2023-09-08T02:51:01;1999.90;;;999.90;;
68995;SDS011;56056;48.990;12.146;2023-09-08T02:53:27;1999.90;;;856.03;;
68995;SDS011;56056;48.990;12.146;2023-09-08T02:55:53;1999.90;;;931.15;;
68995;SDS011;56056;48.990;12.146;2023-09-08T02:58:19;1999.90;;;897.40;;
68995;SDS011;56056;48.990;12.146;2023-09-08T03:00:45;1999.90;;;932.85;;
68995;SDS011;56056;48.990;12.146;2023-09-08T03:03:11;1999.90;;;884.92;;
68995;SDS011;56056;48.990;12.146;2023-09-08T03:05:37;1999.90;;;971.50;;
68995;SDS011;56056;48.990;12.146;2023-09-08T03:08:04;1999.90;;;999.90;;
68995;SDS011;56056;48.990;12.146;2023-09-08T03:10:30;1999.90;;;965.85;;
68995;SDS011;56056;48.990;12.146;2023-09-08T03:12:59;1999.90;;;975.35;;
68995;SDS011;56056;48.990;12.146;2023-09-08T03:15:25;1999.90;;;999.90;;
68995;SDS011;56056;48.990;12.146;2023-09-08T03:17:53;1999.90;;;999.90;;
68995;SDS011;56056;48.990;12.146;2023-09-08T03:20:19;1999.90;;;999.90;;
68995;SDS011;56056;48.990;12.146;2023-09-08T03:22:45;1999.90;;;999.90;;
68995;SDS011;56056;48.990;12.146;2023-09-08T03:25:13;1999.90;;;999.90;;
68995;SDS011;56056;48.990;12.146;2023-09-08T03:27:39;1999.90;;;957.22;;
68995;SDS011;56056;48.990;12.146;2023-09-08T03:30:05;1999.90;;;999.90;;
68995;SDS011;56056;48.990;12.146;2023-09-08T03:32:32;1999.90;;;948.60;;
68995;SDS011;56056;48.990;12.146;2023-09-08T03:34:58;1999.90;;;999.90;;
68995;SDS011;56056;48.990;12.146;2023-09-08T03:37:24;1999.90;;;987.55;;
68995;SDS011;56056;48.990;12.146;2023-09-08T03:39:51;1999.90;;;983.10;;
68995;SDS011;56056;48.990;12.146;2023-09-08T03:42:18;1999.90;;;964.03;;
68995;SDS011;56056;48.990;12.146;2023-09-08T03:44:44;1999.90;;;958.85;;
68995;SDS011;56056;48.990;12.146;2023-09-08T03:47:10;1999.90;;;999.90;;
68995;SDS011;56056;48.990;12.146;2023-09-08T03:49:36;1999.90;;;999.90;;
68995;SDS011;56056;48.990;12.146;2023-09-08T03:52:02;1999.90;;;959.72;;
68995;SDS011;56056;48.990;12.146;2023-09-08T03:54:29;1999.90;;;999.90;;
68995;SDS011;56056;48.990;12.146;2023-09-08T03:56:55;1999.90;;;989.45;;
68995;SDS011;56056;48.990;12.146;2023-09-08T03:59:22;1999.90;;;989.40;;
68995;SDS011;56056;48.990;12.146;2023-09-08T04:01:48;1999.90;;;999.90;;
68995;SDS011;56056;48.990;12.146;2023-09-08T04:04:14;1999.90;;;969.85;;
68995;SDS011;56056;48.990;12.146;2023-09-08T04:06:40;1999.90;;;999.90;;
68995;SDS011;56056;48.990;12.146;2023-09-08T04:09:06;1999.90;;;999.90;;
68995;SDS011;56056;48.990;12.146;2023-09-08T04:11:32;1999.90;;;979.67;;
68995;SDS011;56056;48.990;12.146;2023-09-08T04:13:58;1999.90;;;999.90;;
68995;SDS011;56056;48.990;12.146;2023-09-08T04:16:26;1999.90;;;999.90;;
68995;SDS011;56056;48.990;12.146;2023-09-08T04:18:53;1999.90;;;980.47;;
68995;SDS011;56056;48.990;12.146;2023-09-08T04:21:19;1985.63;;;921.25;;
68995;SDS011;56056;48.990;12.146;2023-09-08T04:23:45;1999.90;;;999.90;;
68995;SDS011;56056;48.990;12.146;2023-09-08T04:26:11;1999.90;;;999.90;;
68995;SDS011;56056;48.990;12.146;2023-09-08T04:28:38;1999.90;;;983.38;;
68995;SDS011;56056;48.990;12.146;2023-09-08T04:31:04;1999.90;;;999.90;;
68995;SDS011;56056;48.990;12.146;2023-09-08T04:33:31;1999.90;;;999.90;;
68995;SDS011;56056;48.990;12.146;2023-09-08T04:35:57;1999.90;;;983.83;;
68995;SDS011;56056;48.990;12.146;2023-09-08T04:38:23;1999.90;;;999.90;;
68995;SDS011;56056;48.990;12.146;2023-09-08T04:40:48;1999.90;;;993.08;;
68995;SDS011;56056;48.990;12.146;2023-09-08T04:43:14;1999.90;;;966.92;;
68995;SDS011;56056;48.990;12.146;2023-09-08T04:45:40;1999.90;;;985.72;;
68995;SDS011;56056;48.990;12.146;2023-09-08T04:48:06;1999.90;;;998.55;;
68995;SDS011;56056;48.990;12.146;2023-09-08T04:50:33;1950.13;;;966.95;;
68995;SDS011;56056;48.990;12.146;2023-09-08T04:52:59;1913.13;;;970.35;;
68995;SDS011;56056;48.990;12.146;2023-09-08T04:55:25;1999.90;;;999.90;;
68995;SDS011;56056;48.990;12.146;2023-09-08T04:57:52;1999.90;;;999.90;;
68995;SDS011;56056;48.990;12.146;2023-09-08T05:00:18;1999.90;;;998.30;;
68995;SDS011;56056;48.990;12.146;2023-09-08T05:02:44;1999.90;;;991.38;;
68995;SDS011;56056;48.990;12.146;2023-09-08T05:05:10;1949.03;;;932.33;;
68995;SDS011;56056;48.990;12.146;2023-09-08T05:07:37;1999.90;;;992.97;;
68995;SDS011;56056;48.990;12.146;2023-09-08T05:10:03;1969.30;;;979.85;;
68995;SDS011;56056;48.990;12.146;2023-09-08T05:12:30;1999.90;;;999.90;;
68995;SDS011;56056;48.990;12.146;2023-09-08T05:14:56;1999.90;;;987.80;;
68995;SDS011;56056;48.990;12.146;2023-09-08T05:17:25;1999.90;;;999.90;;
68995;SDS011;56056;48.990;12.146;2023-09-08T05:19:51;1999.90;;;999.90;;
68995;SDS011;56056;48.990;12.146;2023-09-08T05:22:17;1999.90;;;980.45;;
68995;SDS011;56056;48.990;12.146;2023-09-08T05:24:44;1975.03;;;989.40;;
68995;SDS011;56056;48.990;12.146;2023-09-08T05:27:10;1999.90;;;992.20;;
68995;SDS011;56056;48.990;12.146;2023-09-08T05:29:36;1987.88;;;986.80;;
68995;SDS011;56056;48.990;12.146;2023-09-08T05:32:02;1999.90;;;970.20;;
68995;SDS011;56056;48.990;12.146;2023-09-08T05:34:29;1991.40;;;970.83;;
68995;SDS011;56056;48.990;12.146;2023-09-08T05:36:54;1981.35;;;954.42;;
68995;SDS011;56056;48.990;12.146;2023-09-08T05:39:20;1999.90;;;989.10;;
68995;SDS011;56056;48.990;12.146;2023-09-08T05:41:47;1999.90;;;987.55;;
68995;SDS011;56056;48.990;12.146;2023-09-08T05:44:13;1999.90;;;999.90;;
68995;SDS011;56056;48.990;12.146;2023-09-08T05:46:39;1999.90;;;970.70;;
68995;SDS011;56056;48.990;12.146;2023-09-08T05:49:05;1999.90;;;999.90;;
68995;SDS011;56056;48.990;12.146;2023-09-08T05:51:31;1999.90;;;999.90;;
68995;SDS011;56056;48.990;12.146;2023-09-08T05:53:57;1999.90;;;936.83;;
68995;SDS011;56056;48.990;12.146;2023-09-08T05:56:24;1999.90;;;999.90;;
68995;SDS011;56056;48.990;12.146;2023-09-08T05:58:55;1999.90;;;879.67;;
68995;SDS011;56056;48.990;12.146;2023-09-08T06:01:21;1999.90;;;897.28;;
68995;SDS011;56056;48.990;12.146;2023-09-08T06:03:47;1999.90;;;999.90;;
68995;SDS011;56056;48.990;12.146;2023-09-08T06:06:13;1999.90;;;856.38;;
68995;SDS011;56056;48.990;12.146;2023-09-08T06:08:39;1999.90;;;999.90;;
68995;SDS011;56056;48.990;12.146;2023-09-08T06:11:05;1999.90;;;802.13;;
68995;SDS011;56056;48.990;12.146;2023-09-08T06:13:31;1999.90;;;999.90;;
68995;SDS011;56056;48.990;12.146;2023-09-08T06:15:59;1999.90;;;999.90;;
68995;SDS011;56056;48.990;12.146;2023-09-08T06:18:27;1999.90;;;999.90;;
68995;SDS011;56056;48.990;12.146;2023-09-08T06:20:57;1999.90;;;999.90;;
68995;SDS011;56056;48.990;12.146;2023-09-08T06:23:23;1999.90;;;999.90;;
68995;SDS011;56056;48.990;12.146;2023-09-08T06:25:49;1999.90;;;999.90;;
68995;SDS011;56056;48.990;12.146;2023-09-08T06:28:15;1999.90;;;999.90;;
68995;SDS011;56056;48.990;12.146;2023-09-08T06:30:41;1999.90;;;999.90;;
68995;SDS011;56056;48.990;12.146;2023-09-08T06:33:08;1999.90;;;999.90;;
68995;SDS011;56056;48.990;12.146;2023-09-08T06:35:34;1999.90;;;979.25;;
68995;SDS011;56056;48.990;12.146;2023-09-08T06:38:00;1999.90;;;999.90;;
68995;SDS011;56056;48.990;12.146;2023-09-08T06:40:26;1999.90;;;999.90;;
68995;SDS011;56056;48.990;12.146;2023-09-08T06:42:54;1999.90;;;999.90;;
68995;SDS011;56056;48.990;12.146;2023-09-08T06:45:20;1999.90;;;999.90;;
68995;SDS011;56056;48.990;12.146;2023-09-08T06:47:46;1999.90;;;999.90;;
68995;SDS011;56056;48.990;12.146;2023-09-08T06:50:15;1999.90;;;999.90;;
68995;SDS011;56056;48.990;12.146;2023-09-08T06:52:41;1999.90;;;999.90;;
68995;SDS011;56056;48.990;12.146;2023-09-08T06:55:07;1999.90;;;999.90;;
68995;SDS011;56056;48.990;12.146;2023-09-08T06:57:34;1999.90;;;999.90;;
68995;SDS011;56056;48.990;12.146;2023-09-08T07:00:00;1999.90;;;999.90;;
68995;SDS011;56056;48.990;12.146;2023-09-08T07:02:27;1999.90;;;999.90;;
68995;SDS011;56056;48.990;12.146;2023-09-08T07:04:53;1999.90;;;999.90;;
68995;SDS011;56056;48.990;12.146;2023-09-08T07:07:20;1999.90;;;999.90;;
68995;SDS011;56056;48.990;12.146;2023-09-08T07:09:48;1999.90;;;999.90;;
68995;SDS011;56056;48.990;12.146;2023-09-08T07:12:14;1999.90;;;999.90;;
68995;SDS011;56056;48.990;12.146;2023-09-08T07:14:40;1999.90;;;999.90;;
68995;SDS011;56056;48.990;12.146;2023-09-08T07:17:05;1999.90;;;999.90;;
68995;SDS011;56056;48.990;12.146;2023-09-08T07:19:31;1999.90;;;999.90;;
68995;SDS011;56056;48.990;12.146;2023-09-08T07:21:57;1999.90;;;999.90;;
68995;SDS011;56056;48.990;12.146;2023-09-08T07:24:24;1999.90;;;999.90;;
68995;SDS011;56056;48.990;12.146;2023-09-08T07:26:50;1920.35;;;999.90;;
68995;SDS011;56056;48.990;12.146;2023-09-08T07:29:16;1423.30;;;999.90;;
68995;SDS011;56056;48.990;12.146;2023-09-08T07:31:42;1114.15;;;999.90;;
68995;SDS011;56056;48.990;12.146;2023-09-08T07:34:08;1059.90;;;974.80;;
68995;SDS011;56056;48.990;12.146;2023-09-08T07:36:34;1024.18;;;948.13;;
68995;SDS011;56056;48.990;12.146;2023-09-08T07:39:00;1006.90;;;934.13;;
68995;SDS011;56056;48.990;12.146;2023-09-08T07:41:28;981.08;;;912.50;;
68995;SDS011;56056;48.990;12.146;2023-09-08T07:43:53;945.67;;;879.50;;
68995;SDS011;56056;48.990;12.146;2023-09-08T07:46:19;935.05;;;870.45;;
68995;SDS011;56056;48.990;12.146;2023-09-08T07:48:45;893.13;;;834.67;;
68995;SDS011;56056;48.990;12.146;2023-09-08T07:51:11;843.78;;;788.67;;
68995;SDS011;56056;48.990;12.146;2023-09-08T07:53:37;827.63;;;774.92;;
68995;SDS011;56056;48.990;12.146;2023-09-08T07:56:04;813.50;;;760.13;;
68995;SDS011;56056;48.990;12.146;2023-09-08T07:58:31;823.88;;;770.83;;
68995;SDS011;56056;48.990;12.146;2023-09-08T08:00:57;906.95;;;840.97;;
68995;SDS011;56056;48.990;12.146;2023-09-08T08:03:23;928.70;;;862.97;;
68995;SDS011;56056;48.990;12.146;2023-09-08T08:05:49;949.65;;;883.22;;
68995;SDS011;56056;48.990;12.146;2023-09-08T08:08:15;954.55;;;887.78;;
68995;SDS011;56056;48.990;12.146;2023-09-08T08:10:40;975.25;;;907.05;;
68995;SDS011;56056;48.990;12.146;2023-09-08T08:13:07;973.15;;;905.28;;
68995;SDS011;56056;48.990;12.146;2023-09-08T08:15:37;942.20;;;872.35;;
68995;SDS011;56056;48.990;12.146;2023-09-08T08:18:07;955.08;;;882.70;;
68995;SDS011;56056;48.990;12.146;2023-09-08T08:20:36;1022.58;;;939.63;;
68995;SDS011;56056;48.990;12.146;2023-09-08T08:23:03;1019.22;;;934.83;;
68995;SDS011;56056;48.990;12.146;2023-09-08T08:25:30;1098.95;;;998.40;;
68995;SDS011;56056;48.990;12.146;2023-09-08T08:27:56;1079.85;;;986.20;;
68995;SDS011;56056;48.990;12.146;2023-09-08T08:30:23;1085.32;;;991.20;;
68995;SDS011;56056;48.990;12.146;2023-09-08T08:32:50;1081.80;;;988.15;;
68995;SDS011;56056;48.990;12.146;2023-09-08T08:35:18;1067.93;;;983.28;;
68995;SDS011;56056;48.990;12.146;2023-09-08T08:37:44;1034.60;;;951.42;;
68995;SDS011;56056;48.990;12.146;2023-09-08T08:40:10;1052.13;;;970.38;;
68995;SDS011;56056;48.990;12.146;2023-09-08T08:42:38;1062.00;;;970.72;;
68995;SDS011;56056;48.990;12.146;2023-09-08T08:45:05;1044.78;;;957.70;;
68995;SDS011;56056;48.990;12.146;2023-09-08T08:47:32;1034.63;;;947.05;;
68995;SDS011;56056;48.990;12.146;2023-09-08T08:50:00;1068.65;;;972.08;;
68995;SDS011;56056;48.990;12.146;2023-09-08T08:52:27;1002.38;;;918.28;;
68995;SDS011;56056;48.990;12.146;2023-09-08T08:54:54;968.33;;;895.63;;
68995;SDS011;56056;48.990;12.146;2023-09-08T08:57:21;977.75;;;907.17;;
68995;SDS011;56056;48.990;12.146;2023-09-08T08:59:47;994.53;;;918.40;;
68995;SDS011;56056;48.990;12.146;2023-09-08T09:02:16;1008.30;;;932.95;;
68995;SDS011;56056;48.990;12.146;2023-09-08T09:04:43;1030.63;;;951.05;;
68995;SDS011;56056;48.990;12.146;2023-09-08T09:07:11;1062.38;;;971.20;;
68995;SDS011;56056;48.990;12.146;2023-09-08T09:09:37;1100.75;;;997.92;;
68995;SDS011;56056;48.990;12.146;2023-09-08T09:12:05;1049.10;;;963.03;;
68995;SDS011;56056;48.990;12.146;2023-09-08T09:14:32;1125.75;;;999.90;;
68995;SDS011;56056;48.990;12.146;2023-09-08T09:16:59;1089.85;;;992.80;;
68995;SDS011;56056;48.990;12.146;2023-09-08T09:19:29;1110.70;;;999.70;;
68995;SDS011;56056;48.990;12.146;2023-09-08T09:21:57;1126.30;;;999.90;;
68995;SDS011;56056;48.990;12.146;2023-09-08T09:24:31;1091.30;;;991.17;;
68995;SDS011;56056;48.990;12.146;2023-09-08T09:27:00;1097.70;;;995.70;;
68995;SDS011;56056;48.990;12.146;2023-09-08T09:29:26;1083.05;;;988.03;;
68995;SDS011;56056;48.990;12.146;2023-09-08T09:31:53;1015.88;;;930.33;;
68995;SDS011;56056;48.990;12.146;2023-09-08T09:34:21;1120.78;;;999.90;;
68995;SDS011;56056;48.990;12.146;2023-09-08T09:36:48;1120.05;;;999.90;;
68995;SDS011;56056;48.990;12.146;2023-09-08T09:39:16;1030.05;;;945.75;;
68995;SDS011;56056;48.990;12.146;2023-09-08T09:41:44;1047.22;;;959.67;;
68995;SDS011;56056;48.990;12.146;2023-09-08T09:44:11;1080.47;;;984.83;;
68995;SDS011;56056;48.990;12.146;2023-09-08T09:46:37;1072.20;;;978.03;;
68995;SDS011;56056;48.990;12.146;2023-09-08T09:49:03;1087.22;;;990.83;;
68995;SDS011;56056;48.990;12.146;2023-09-08T09:51:29;1101.03;;;997.53;;
68995;SDS011;56056;48.990;12.146;2023-09-08T09:53:55;1056.20;;;967.15;;
68995;SDS011;56056;48.990;12.146;2023-09-08T09:56:23;973.53;;;898.78;;
68995;SDS011;56056;48.990;12.146;2023-09-08T09:58:52;1060.45;;;966.85;;
68995;SDS011;56056;48.990;12.146;2023-09-08T10:01:19;1080.85;;;983.97;;
68995;SDS011;56056;48.990;12.146;2023-09-08T10:03:47;916.22;;;850.15;;
68995;SDS011;56056;48.990;12.146;2023-09-08T10:06:14;1102.25;;;999.55;;
68995;SDS011;56056;48.990;12.146;2023-09-08T10:08:41;911.53;;;846.05;;
68995;SDS011;56056;48.990;12.146;2023-09-08T10:11:08;921.33;;;850.60;;
68995;SDS011;56056;48.990;12.146;2023-09-08T10:13:38;967.53;;;890.60;;
68995;SDS011;56056;48.990;12.146;2023-09-08T10:16:09;986.25;;;906.97;;
68995;SDS011;56056;48.990;12.146;2023-09-08T10:18:40;917.03;;;847.75;;
68995;SDS011;56056;48.990;12.146;2023-09-08T10:21:09;941.25;;;869.53;;
68995;SDS011;56056;48.990;12.146;2023-09-08T10:23:38;832.00;;;775.45;;
68995;SDS011;56056;48.990;12.146;2023-09-08T10:26:09;899.92;;;835.47;;
68995;SDS011;56056;48.990;12.146;2023-09-08T10:28:37;941.60;;;868.60;;
68995;SDS011;56056;48.990;12.146;2023-09-08T10:31:03;1012.95;;;932.13;;
68995;SDS011;56056;48.990;12.146;2023-09-08T10:33:31;991.88;;;913.47;;
68995;SDS011;56056;48.990;12.146;2023-09-08T10:36:00;979.83;;;906.80;;
68995;SDS011;56056;48.990;12.146;2023-09-08T10:38:31;879.40;;;817.35;;
68995;SDS011;56056;48.990;12.146;2023-09-08T10:41:25;980.97;;;906.15;;
68995;SDS011;56056;48.990;12.146;2023-09-08T10:43:54;1012.53;;;936.10;;
68995;SDS011;56056;48.990;12.146;2023-09-08T10:46:22;960.17;;;894.17;;
68995;SDS011;56056;48.990;12.146;2023-09-08T10:48:52;940.80;;;875.72;;
68995;SDS011;56056;48.990;12.146;2023-09-08T10:51:19;949.75;;;882.22;;
68995;SDS011;56056;48.990;12.146;2023-09-08T10:53:47;1001.75;;;924.83;;
68995;SDS011;56056;48.990;12.146;2023-09-08T10:56:14;1033.07;;;951.80;;
68995;SDS011;56056;48.990;12.146;2023-09-08T10:58:41;1030.70;;;950.03;;
68995;SDS011;56056;48.990;12.146;2023-09-08T11:01:12;1081.07;;;986.97;;
68995;SDS011;56056;48.990;12.146;2023-09-08T11:03:44;1039.20;;;950.28;;
68995;SDS011;56056;48.990;12.146;2023-09-08T11:06:16;1000.30;;;924.03;;
68995;SDS011;56056;48.990;12.146;2023-09-08T11:08:44;1047.78;;;963.00;;
68995;SDS011;56056;48.990;12.146;2023-09-08T11:11:11;1032.35;;;951.15;;
68995;SDS011;56056;48.990;12.146;2023-09-08T11:13:37;1050.50;;;963.92;;
68995;SDS011;56056;48.990;12.146;2023-09-08T11:16:10;1037.43;;;954.08;;
68995;SDS011;56056;48.990;12.146;2023-09-08T11:18:36;1015.53;;;936.53;;
68995;SDS011;56056;48.990;12.146;2023-09-08T11:21:03;1008.47;;;932.78;;
68995;SDS011;56056;48.990;12.146;2023-09-08T11:23:35;1093.80;;;996.65;;
68995;SDS011;56056;48.990;12.146;2023-09-08T11:26:01;1040.47;;;953.97;;
68995;SDS011;56056;48.990;12.146;2023-09-08T11:28:27;999.20;;;924.53;;
68995;SDS011;56056;48.990;12.146;2023-09-08T11:30:53;968.72;;;899.25;;
68995;SDS011;56056;48.990;12.146;2023-09-08T11:33:20;969.65;;;899.85;;
68995;SDS011;56056;48.990;12.146;2023-09-08T11:35:51;1025.78;;;946.88;;
68995;SDS011;56056;48.990;12.146;2023-09-08T11:38:18;990.72;;;914.10;;
68995;SDS011;56056;48.990;12.146;2023-09-08T11:40:50;1024.30;;;945.45;;
68995;SDS011;56056;48.990;12.146;2023-09-08T11:43:16;1010.58;;;935.75;;
68995;SDS011;56056;48.990;12.146;2023-09-08T11:45:42;1013.47;;;936.58;;
68995;SDS011;56056;48.990;12.146;2023-09-08T11:48:09;1019.67;;;941.20;;
68995;SDS011;56056;48.990;12.146;2023-09-08T11:50:35;1034.00;;;951.58;;
68995;SDS011;56056;48.990;12.146;2023-09-08T11:53:01;971.55;;;899.85;;
68995;SDS011;56056;48.990;12.146;2023-09-08T11:55:28;1011.70;;;934.85;;
68995;SDS011;56056;48.990;12.146;2023-09-08T11:57:55;1052.22;;;965.42;;
68995;SDS011;56056;48.990;12.146;2023-09-08T12:00:27;975.28;;;902.72;;
68995;SDS011;56056;48.990;12.146;2023-09-08T12:02:54;1025.85;;;946.78;;
68995;SDS011;56056;48.990;12.146;2023-09-08T12:05:21;934.58;;;866.35;;
68995;SDS011;56056;48.990;12.146;2023-09-08T12:07:48;1024.45;;;941.88;;
68995;SDS011;56056;48.990;12.146;2023-09-08T12:10:15;984.28;;;909.83;;
68995;SDS011;56056;48.990;12.146;2023-09-08T12:12:43;994.00;;;917.72;;
68995;SDS011;56056;48.990;12.146;2023-09-08T12:15:11;998.95;;;925.88;;
68995;SDS011;56056;48.990;12.146;2023-09-08T12:17:52;982.17;;;909.63;;
68995;SDS011;56056;48.990;12.146;2023-09-08T12:20:18;954.70;;;887.40;;
68995;SDS011;56056;48.990;12.146;2023-09-08T12:22:48;1040.18;;;956.13;;
68995;SDS011;56056;48.990;12.146;2023-09-08T12:25:15;952.55;;;884.33;;
68995;SDS011;56056;48.990;12.146;2023-09-08T12:27:41;942.85;;;879.92;;
68995;SDS011;56056;48.990;12.146;2023-09-08T12:30:08;936.08;;;872.63;;
68995;SDS011;56056;48.990;12.146;2023-09-08T12:32:44;1031.22;;;953.22;;
68995;SDS011;56056;48.990;12.146;2023-09-08T12:35:21;1010.53;;;935.65;;
68995;SDS011;56056;48.990;12.146;2023-09-08T12:37:51;1012.08;;;933.47;;
68995;SDS011;56056;48.990;12.146;2023-09-08T12:40:23;1074.32;;;984.55;;
68995;SDS011;56056;48.990;12.146;2023-09-08T12:42:49;1058.25;;;968.95;;
68995;SDS011;56056;48.990;12.146;2023-09-08T12:45:15;1042.97;;;961.63;;
68995;SDS011;56056;48.990;12.146;2023-09-08T12:47:44;1080.05;;;989.90;;
68995;SDS011;56056;48.990;12.146;2023-09-08T12:50:10;1021.58;;;944.05;;
68995;SDS011;56056;48.990;12.146;2023-09-08T12:52:38;978.75;;;907.65;;
68995;SDS011;56056;48.990;12.146;2023-09-08T12:55:04;967.65;;;899.60;;
68995;SDS011;56056;48.990;12.146;2023-09-08T12:57:30;989.80;;;917.63;;
68995;SDS011;56056;48.990;12.146;2023-09-08T12:59:56;997.92;;;925.78;;
68995;SDS011;56056;48.990;12.146;2023-09-08T13:02:22;1018.80;;;942.22;;
68995;SDS011;56056;48.990;12.146;2023-09-08T13:04:49;995.60;;;920.85;;
68995;SDS011;56056;48.990;12.146;2023-09-08T13:07:15;945.42;;;880.40;;
68995;SDS011;56056;48.990;12.146;2023-09-08T13:09:41;972.38;;;903.45;;
68995;SDS011;56056;48.990;12.146;2023-09-08T13:12:07;946.65;;;882.42;;
68995;SDS011;56056;48.990;12.146;2023-09-08T13:14:34;956.22;;;890.17;;
68995;SDS011;56056;48.990;12.146;2023-09-08T13:17:00;936.28;;;873.13;;
68995;SDS011;56056;48.990;12.146;2023-09-08T13:19:26;908.08;;;848.03;;
68995;SDS011;56056;48.990;12.146;2023-09-08T13:21:53;960.72;;;895.15;;
68995;SDS011;56056;48.990;12.146;2023-09-08T13:24:19;960.70;;;890.92;;
68995;SDS011;56056;48.990;12.146;2023-09-08T13:26:47;946.45;;;880.38;;
68995;SDS011;56056;48.990;12.146;2023-09-08T13:29:13;943.88;;;879.20;;
68995;SDS011;56056;48.990;12.146;2023-09-08T13:31:38;947.33;;;878.25;;
68995;SDS011;56056;48.990;12.146;2023-09-08T13:34:04;1032.60;;;949.90;;
68995;SDS011;56056;48.990;12.146;2023-09-08T13:36:30;980.05;;;909.03;;